sensor_id;sensor_type;location;lat;lon;timestamp;temperature;humidity
4052;DHT22;2040;50.924;11.604;2023-02-24T00:01:26;7.50;99.90
4052;DHT22;2040;50.924;11.604;2023-02-24T00:04:02;7.30;99.90
4052;DHT22;2040;50.924;11.604;2023-02-24T00:06:29;7.30;99.90
4052;DHT22;2040;50.924;11.604;2023-02-24T00:09:06;7.30;99.90
4052;DHT22;2040;50.924;11.604;2023-02-24T00:11:35;7.30;99.90
4052;DHT22;2040;50.924;11.604;2023-02-24T00:14:04;7.20;99.90
4052;DHT22;2040;50.924;11.604;2023-02-24T00:16:30;7.20;99.90
4052;DHT22;2040;50.924;11.604;2023-02-24T00:18:56;7.20;99.90
4052;DHT22;2040;50.924;11.604;2023-02-24T00:21:22;7.10;99.90
4052;DHT22;2040;50.924;11.604;2023-02-24T00:23:48;7.20;99.90
4052;DHT22;2040;50.924;11.604;2023-02-24T00:26:14;7.10;99.90
4052;DHT22;2040;50.924;11.604;2023-02-24T00:28:41;7.00;99.90
4052;DHT22;2040;50.924;11.604;2023-02-24T00:31:09;7.00;99.90
4052;DHT22;2040;50.924;11.604;2023-02-24T00:33:36;7.00;99.90
4052;DHT22;2040;50.924;11.604;2023-02-24T00:36:12;7.00;99.90
4052;DHT22;2040;50.924;11.604;2023-02-24T00:38:39;7.00;99.90
4052;DHT22;2040;50.924;11.604;2023-02-24T00:41:14;7.00;99.90
4052;DHT22;2040;50.924;11.604;2023-02-24T00:43:41;6.90;99.90
4052;DHT22;2040;50.924;11.604;2023-02-24T00:46:13;7.00;99.90
4052;DHT22;2040;50.924;11.604;2023-02-24T00:48:39;6.90;99.90
4052;DHT22;2040;50.924;11.604;2023-02-24T00:51:07;7.00;99.90
4052;DHT22;2040;50.924;11.604;2023-02-24T00:53:35;6.90;99.90
4052;DHT22;2040;50.924;11.604;2023-02-24T00:56:00;6.90;99.90
4052;DHT22;2040;50.924;11.604;2023-02-24T00:58:26;6.90;99.90
4052;DHT22;2040;50.924;11.604;2023-02-24T01:00:55;7.00;99.90
4052;DHT22;2040;50.924;11.604;2023-02-24T01:03:21;6.90;99.90
4052;DHT22;2040;50.924;11.604;2023-02-24T01:05:46;6.90;99.90
4052;DHT22;2040;50.924;11.604;2023-02-24T01:08:12;6.90;99.90
4052;DHT22;2040;50.924;11.604;2023-02-24T01:10:40;6.90;99.90
4052;DHT22;2040;50.924;11.604;2023-02-24T01:13:26;6.90;99.90
4052;DHT22;2040;50.924;11.604;2023-02-24T01:15:58;6.80;99.90
4052;DHT22;2040;50.924;11.604;2023-02-24T01:18:26;6.80;99.90
4052;DHT22;2040;50.924;11.604;2023-02-24T01:20:57;6.70;99.90
4052;DHT22;2040;50.924;11.604;2023-02-24T01:23:23;6.70;99.90
4052;DHT22;2040;50.924;11.604;2023-02-24T01:25:48;6.70;99.90
4052;DHT22;2040;50.924;11.604;2023-02-24T01:28:14;6.60;99.90
4052;DHT22;2040;50.924;11.604;2023-02-24T01:30:40;6.60;99.90
4052;DHT22;2040;50.924;11.604;2023-02-24T01:33:08;6.60;99.90
4052;DHT22;2040;50.924;11.604;2023-02-24T01:35:39;6.50;99.90
4052;DHT22;2040;50.924;11.604;2023-02-24T01:38:05;6.40;99.90
4052;DHT22;2040;50.924;11.604;2023-02-24T01:40:31;6.40;99.90
4052;DHT22;2040;50.924;11.604;2023-02-24T01:42:56;6.40;99.90
4052;DHT22;2040;50.924;11.604;2023-02-24T01:45:25;6.40;99.90
4052;DHT22;2040;50.924;11.604;2023-02-24T01:47:57;6.40;99.90
4052;DHT22;2040;50.924;11.604;2023-02-24T01:50:25;6.40;99.90
4052;DHT22;2040;50.924;11.604;2023-02-24T01:52:56;6.40;99.90
4052;DHT22;2040;50.924;11.604;2023-02-24T01:55:35;6.30;99.90
4052;DHT22;2040;50.924;11.604;2023-02-24T01:58:11;6.30;99.90
4052;DHT22;2040;50.924;11.604;2023-02-24T02:00:40;6.30;99.90
4052;DHT22;2040;50.924;11.604;2023-02-24T02:03:32;6.30;99.90
4052;DHT22;2040;50.924;11.604;2023-02-24T02:06:06;6.30;99.90
4052;DHT22;2040;50.924;11.604;2023-02-24T02:08:35;6.20;99.90
4052;DHT22;2040;50.924;11.604;2023-02-24T02:11:07;6.20;99.90
4052;DHT22;2040;50.924;11.604;2023-02-24T02:13:34;6.20;99.90
4052;DHT22;2040;50.924;11.604;2023-02-24T02:19:28;6.30;99.90
4052;DHT22;2040;50.924;11.604;2023-02-24T02:35:38;6.30;99.90
4052;DHT22;2040;50.924;11.604;2023-02-24T02:38:13;6.30;99.90
4052;DHT22;2040;50.924;11.604;2023-02-24T02:44:25;6.40;99.90
4052;DHT22;2040;50.924;11.604;2023-02-24T02:46:36;6.30;99.90
4052;DHT22;2040;50.924;11.604;2023-02-24T02:49:18;6.30;99.90
4052;DHT22;2040;50.924;11.604;2023-02-24T02:51:50;6.30;99.90
4052;DHT22;2040;50.924;11.604;2023-02-24T02:54:27;6.30;99.90
4052;DHT22;2040;50.924;11.604;2023-02-24T02:57:13;6.30;99.90
4052;DHT22;2040;50.924;11.604;2023-02-24T02:59:48;6.30;99.90
4052;DHT22;2040;50.924;11.604;2023-02-24T03:02:19;6.30;99.90
4052;DHT22;2040;50.924;11.604;2023-02-24T03:04:50;6.30;99.90
4052;DHT22;2040;50.924;11.604;2023-02-24T03:07:18;6.20;99.90
4052;DHT22;2040;50.924;11.604;2023-02-24T03:09:55;6.40;99.90
4052;DHT22;2040;50.924;11.604;2023-02-24T03:12:24;6.40;99.90
4052;DHT22;2040;50.924;11.604;2023-02-24T03:14:56;6.40;99.90
4052;DHT22;2040;50.924;11.604;2023-02-24T03:17:26;6.40;99.90
4052;DHT22;2040;50.924;11.604;2023-02-24T03:20:02;6.30;99.90
4052;DHT22;2040;50.924;11.604;2023-02-24T03:22:41;6.40;99.90
4052;DHT22;2040;50.924;11.604;2023-02-24T03:25:08;6.40;99.90
4052;DHT22;2040;50.924;11.604;2023-02-24T03:27:37;6.20;99.90
4052;DHT22;2040;50.924;11.604;2023-02-24T03:30:11;6.20;99.90
4052;DHT22;2040;50.924;11.604;2023-02-24T03:32:46;6.30;99.90
4052;DHT22;2040;50.924;11.604;2023-02-24T03:35:18;6.30;99.90
4052;DHT22;2040;50.924;11.604;2023-02-24T03:37:45;6.20;99.90
4052;DHT22;2040;50.924;11.604;2023-02-24T03:40:13;6.20;99.90
4052;DHT22;2040;50.924;11.604;2023-02-24T03:42:42;6.20;99.90
4052;DHT22;2040;50.924;11.604;2023-02-24T03:45:09;6.20;99.90
4052;DHT22;2040;50.924;11.604;2023-02-24T03:47:36;6.20;99.90
4052;DHT22;2040;50.924;11.604;2023-02-24T03:50:09;6.20;99.90
4052;DHT22;2040;50.924;11.604;2023-02-24T03:53:08;6.20;99.90
4052;DHT22;2040;50.924;11.604;2023-02-24T03:58:17;6.10;99.90
4052;DHT22;2040;50.924;11.604;2023-02-24T04:06:42;6.20;99.90
4052;DHT22;2040;50.924;11.604;2023-02-24T04:12:18;6.20;99.90
4052;DHT22;2040;50.924;11.604;2023-02-24T04:15:05;6.20;99.90
4052;DHT22;2040;50.924;11.604;2023-02-24T04:18:02;6.10;99.90
4052;DHT22;2040;50.924;11.604;2023-02-24T04:20:31;6.10;99.90
4052;DHT22;2040;50.924;11.604;2023-02-24T04:23:03;6.00;99.90
4052;DHT22;2040;50.924;11.604;2023-02-24T04:25:33;6.00;99.90
4052;DHT22;2040;50.924;11.604;2023-02-24T04:28:00;6.00;99.90
4052;DHT22;2040;50.924;11.604;2023-02-24T04:30:32;6.00;99.90
4052;DHT22;2040;50.924;11.604;2023-02-24T04:32:58;6.00;99.90
4052;DHT22;2040;50.924;11.604;2023-02-24T04:35:25;6.00;99.90
4052;DHT22;2040;50.924;11.604;2023-02-24T04:37:53;6.00;99.90
4052;DHT22;2040;50.924;11.604;2023-02-24T04:40:20;6.10;99.90
4052;DHT22;2040;50.924;11.604;2023-02-24T04:42:47;6.10;99.90
4052;DHT22;2040;50.924;11.604;2023-02-24T04:47:41;6.00;99.90
4052;DHT22;2040;50.924;11.604;2023-02-24T04:50:08;6.00;99.90
4052;DHT22;2040;50.924;11.604;2023-02-24T04:52:36;6.00;99.90
4052;DHT22;2040;50.924;11.604;2023-02-24T04:55:03;6.00;99.90
4052;DHT22;2040;50.924;11.604;2023-02-24T04:57:35;5.90;99.90
4052;DHT22;2040;50.924;11.604;2023-02-24T05:00:03;6.00;99.90
4052;DHT22;2040;50.924;11.604;2023-02-24T05:02:37;5.90;99.90
4052;DHT22;2040;50.924;11.604;2023-02-24T05:05:03;5.90;99.90
4052;DHT22;2040;50.924;11.604;2023-02-24T05:07:32;5.90;99.90
4052;DHT22;2040;50.924;11.604;2023-02-24T05:09:58;5.90;99.90
4052;DHT22;2040;50.924;11.604;2023-02-24T05:12:23;5.90;99.90
4052;DHT22;2040;50.924;11.604;2023-02-24T05:14:49;5.90;99.90
4052;DHT22;2040;50.924;11.604;2023-02-24T05:17:14;5.90;99.90
4052;DHT22;2040;50.924;11.604;2023-02-24T05:19:40;6.00;99.90
4052;DHT22;2040;50.924;11.604;2023-02-24T05:22:24;6.00;99.90
4052;DHT22;2040;50.924;11.604;2023-02-24T05:24:50;6.00;99.90
4052;DHT22;2040;50.924;11.604;2023-02-24T05:27:16;6.10;99.90
4052;DHT22;2040;50.924;11.604;2023-02-24T05:29:41;6.00;99.90
4052;DHT22;2040;50.924;11.604;2023-02-24T05:32:08;5.90;99.90
4052;DHT22;2040;50.924;11.604;2023-02-24T05:34:34;5.90;99.90
4052;DHT22;2040;50.924;11.604;2023-02-24T05:37:01;5.90;99.90
4052;DHT22;2040;50.924;11.604;2023-02-24T05:39:31;5.90;99.90
4052;DHT22;2040;50.924;11.604;2023-02-24T05:41:57;5.90;99.90
4052;DHT22;2040;50.924;11.604;2023-02-24T05:44:24;5.90;99.90
4052;DHT22;2040;50.924;11.604;2023-02-24T05:46:55;5.90;99.90
4052;DHT22;2040;50.924;11.604;2023-02-24T05:49:28;5.70;99.90
4052;DHT22;2040;50.924;11.604;2023-02-24T05:51:58;5.60;99.90
4052;DHT22;2040;50.924;11.604;2023-02-24T05:56:53;5.30;99.90
4052;DHT22;2040;50.924;11.604;2023-02-24T05:59:21;5.30;99.90
4052;DHT22;2040;50.924;11.604;2023-02-24T06:01:48;5.20;99.90
4052;DHT22;2040;50.924;11.604;2023-02-24T06:04:17;5.10;99.90
4052;DHT22;2040;50.924;11.604;2023-02-24T06:06:52;5.00;99.90
4052;DHT22;2040;50.924;11.604;2023-02-24T06:09:19;5.00;99.90
4052;DHT22;2040;50.924;11.604;2023-02-24T06:11:48;4.90;99.90
4052;DHT22;2040;50.924;11.604;2023-02-24T06:14:15;5.00;99.90
4052;DHT22;2040;50.924;11.604;2023-02-24T06:16:41;5.00;99.90
4052;DHT22;2040;50.924;11.604;2023-02-24T06:19:09;4.90;99.90
4052;DHT22;2040;50.924;11.604;2023-02-24T06:21:36;4.90;99.90
4052;DHT22;2040;50.924;11.604;2023-02-24T06:24:06;5.00;99.90
4052;DHT22;2040;50.924;11.604;2023-02-24T06:26:34;4.80;99.90
4052;DHT22;2040;50.924;11.604;2023-02-24T06:29:01;4.80;99.90
4052;DHT22;2040;50.924;11.604;2023-02-24T06:31:28;4.80;99.90
4052;DHT22;2040;50.924;11.604;2023-02-24T06:33:54;4.80;99.90
4052;DHT22;2040;50.924;11.604;2023-02-24T06:36:20;4.70;99.90
4052;DHT22;2040;50.924;11.604;2023-02-24T06:38:46;4.70;99.90
4052;DHT22;2040;50.924;11.604;2023-02-24T06:41:13;4.80;99.90
4052;DHT22;2040;50.924;11.604;2023-02-24T06:43:41;4.90;99.90
4052;DHT22;2040;50.924;11.604;2023-02-24T06:46:08;4.90;99.90
4052;DHT22;2040;50.924;11.604;2023-02-24T06:48:34;4.80;99.90
4052;DHT22;2040;50.924;11.604;2023-02-24T06:51:09;4.90;99.90
4052;DHT22;2040;50.924;11.604;2023-02-24T06:53:37;5.00;99.90
4052;DHT22;2040;50.924;11.604;2023-02-24T06:56:12;5.10;99.90
4052;DHT22;2040;50.924;11.604;2023-02-24T06:58:43;5.10;99.90
4052;DHT22;2040;50.924;11.604;2023-02-24T07:01:21;4.90;99.90
4052;DHT22;2040;50.924;11.604;2023-02-24T07:03:54;5.00;99.90
4052;DHT22;2040;50.924;11.604;2023-02-24T07:06:34;5.00;99.90
4052;DHT22;2040;50.924;11.604;2023-02-24T07:09:02;4.90;99.90
4052;DHT22;2040;50.924;11.604;2023-02-24T07:11:30;4.90;99.90
4052;DHT22;2040;50.924;11.604;2023-02-24T07:13:57;4.90;99.90
4052;DHT22;2040;50.924;11.604;2023-02-24T07:16:24;4.90;99.90
4052;DHT22;2040;50.924;11.604;2023-02-24T07:18:54;4.90;99.90
4052;DHT22;2040;50.924;11.604;2023-02-24T07:21:21;4.80;99.90
4052;DHT22;2040;50.924;11.604;2023-02-24T07:23:48;4.80;99.90
4052;DHT22;2040;50.924;11.604;2023-02-24T07:26:18;4.90;99.90
4052;DHT22;2040;50.924;11.604;2023-02-24T07:28:47;5.00;99.90
4052;DHT22;2040;50.924;11.604;2023-02-24T07:31:15;4.80;99.90
4052;DHT22;2040;50.924;11.604;2023-02-24T07:33:44;4.80;99.90
4052;DHT22;2040;50.924;11.604;2023-02-24T07:36:15;4.60;99.90
4052;DHT22;2040;50.924;11.604;2023-02-24T07:38:44;4.60;99.90
4052;DHT22;2040;50.924;11.604;2023-02-24T07:41:12;4.50;99.90
4052;DHT22;2040;50.924;11.604;2023-02-24T07:43:40;4.40;99.90
4052;DHT22;2040;50.924;11.604;2023-02-24T07:46:08;4.30;99.90
4052;DHT22;2040;50.924;11.604;2023-02-24T07:48:34;4.20;99.90
4052;DHT22;2040;50.924;11.604;2023-02-24T07:51:12;4.20;99.90
4052;DHT22;2040;50.924;11.604;2023-02-24T07:53:39;4.00;99.90
4052;DHT22;2040;50.924;11.604;2023-02-24T07:56:13;3.90;99.90
4052;DHT22;2040;50.924;11.604;2023-02-24T07:58:48;4.00;99.90
4052;DHT22;2040;50.924;11.604;2023-02-24T08:01:22;4.10;99.90
4052;DHT22;2040;50.924;11.604;2023-02-24T08:03:51;4.00;99.90
4052;DHT22;2040;50.924;11.604;2023-02-24T08:06:24;4.10;99.90
4052;DHT22;2040;50.924;11.604;2023-02-24T08:09:04;3.90;99.90
4052;DHT22;2040;50.924;11.604;2023-02-24T08:11:43;4.00;99.90
4052;DHT22;2040;50.924;11.604;2023-02-24T08:14:11;4.10;99.90
4052;DHT22;2040;50.924;11.604;2023-02-24T08:16:42;4.20;99.90
4052;DHT22;2040;50.924;11.604;2023-02-24T08:19:10;4.30;99.90
4052;DHT22;2040;50.924;11.604;2023-02-24T08:21:41;4.30;99.90
4052;DHT22;2040;50.924;11.604;2023-02-24T08:24:22;4.40;99.90
4052;DHT22;2040;50.924;11.604;2023-02-24T08:26:53;4.50;99.90
4052;DHT22;2040;50.924;11.604;2023-02-24T08:29:38;4.60;99.90
4052;DHT22;2040;50.924;11.604;2023-02-24T08:32:39;4.60;99.90
4052;DHT22;2040;50.924;11.604;2023-02-24T08:35:10;4.70;99.90
4052;DHT22;2040;50.924;11.604;2023-02-24T08:37:51;4.90;99.90
4052;DHT22;2040;50.924;11.604;2023-02-24T08:40:21;5.00;99.90
4052;DHT22;2040;50.924;11.604;2023-02-24T08:43:20;5.00;99.90
4052;DHT22;2040;50.924;11.604;2023-02-24T08:46:19;5.10;99.90
4052;DHT22;2040;50.924;11.604;2023-02-24T08:48:49;5.10;99.90
4052;DHT22;2040;50.924;11.604;2023-02-24T08:53:53;5.00;99.90
4052;DHT22;2040;50.924;11.604;2023-02-24T08:56:21;5.20;99.90
4052;DHT22;2040;50.924;11.604;2023-02-24T08:58:53;5.30;99.90
4052;DHT22;2040;50.924;11.604;2023-02-24T09:01:28;5.40;99.90
4052;DHT22;2040;50.924;11.604;2023-02-24T09:04:00;5.40;99.90
4052;DHT22;2040;50.924;11.604;2023-02-24T09:06:45;5.30;99.90
4052;DHT22;2040;50.924;11.604;2023-02-24T09:09:13;5.50;99.90
4052;DHT22;2040;50.924;11.604;2023-02-24T09:11:56;5.60;99.90
4052;DHT22;2040;50.924;11.604;2023-02-24T09:16:51;5.40;99.90
4052;DHT22;2040;50.924;11.604;2023-02-24T09:19:48;5.50;99.90
4052;DHT22;2040;50.924;11.604;2023-02-24T09:25:11;5.70;99.90
4052;DHT22;2040;50.924;11.604;2023-02-24T09:27:50;5.80;99.90
4052;DHT22;2040;50.924;11.604;2023-02-24T09:30:34;5.70;99.90
4052;DHT22;2040;50.924;11.604;2023-02-24T09:36:09;6.00;99.90
4052;DHT22;2040;50.924;11.604;2023-02-24T09:38:40;6.10;99.90
4052;DHT22;2040;50.924;11.604;2023-02-24T09:44:36;6.30;99.90
4052;DHT22;2040;50.924;11.604;2023-02-24T09:47:16;6.40;99.90
4052;DHT22;2040;50.924;11.604;2023-02-24T09:50:18;6.50;99.90
4052;DHT22;2040;50.924;11.604;2023-02-24T09:53:13;6.50;99.90
4052;DHT22;2040;50.924;11.604;2023-02-24T09:55:47;6.50;99.90
4052;DHT22;2040;50.924;11.604;2023-02-24T09:58:44;6.60;99.90
4052;DHT22;2040;50.924;11.604;2023-02-24T10:04:13;6.50;99.90
4052;DHT22;2040;50.924;11.604;2023-02-24T10:12:22;6.60;99.90
4052;DHT22;2040;50.924;11.604;2023-02-24T10:15:11;6.60;99.90
4052;DHT22;2040;50.924;11.604;2023-02-24T10:17:51;6.70;99.90
4052;DHT22;2040;50.924;11.604;2023-02-24T10:20:22;6.80;99.90
4052;DHT22;2040;50.924;11.604;2023-02-24T10:23:48;6.90;99.90
4052;DHT22;2040;50.924;11.604;2023-02-24T10:26:26;7.10;99.90
4052;DHT22;2040;50.924;11.604;2023-02-24T10:29:21;7.40;99.90
4052;DHT22;2040;50.924;11.604;2023-02-24T10:32:01;7.80;99.90
4052;DHT22;2040;50.924;11.604;2023-02-24T10:34:32;7.60;99.90
4052;DHT22;2040;50.924;11.604;2023-02-24T10:37:01;7.60;99.90
4052;DHT22;2040;50.924;11.604;2023-02-24T10:39:31;7.20;99.90
4052;DHT22;2040;50.924;11.604;2023-02-24T10:42:02;7.30;99.90
4052;DHT22;2040;50.924;11.604;2023-02-24T10:44:48;7.10;99.90
4052;DHT22;2040;50.924;11.604;2023-02-24T10:47:27;7.00;99.90
4052;DHT22;2040;50.924;11.604;2023-02-24T10:49:58;7.00;99.90
4052;DHT22;2040;50.924;11.604;2023-02-24T10:52:28;7.10;99.90
4052;DHT22;2040;50.924;11.604;2023-02-24T10:55:04;7.20;99.90
4052;DHT22;2040;50.924;11.604;2023-02-24T10:57:43;7.20;99.90
4052;DHT22;2040;50.924;11.604;2023-02-24T11:00:17;7.30;99.90
4052;DHT22;2040;50.924;11.604;2023-02-24T11:03:08;7.60;99.90
4052;DHT22;2040;50.924;11.604;2023-02-24T11:05:45;7.80;99.90
4052;DHT22;2040;50.924;11.604;2023-02-24T11:08:31;7.70;99.90
4052;DHT22;2040;50.924;11.604;2023-02-24T11:11:19;7.70;99.90
4052;DHT22;2040;50.924;11.604;2023-02-24T11:13:57;7.60;99.90
4052;DHT22;2040;50.924;11.604;2023-02-24T11:16:53;7.60;99.90
4052;DHT22;2040;50.924;11.604;2023-02-24T11:19:58;7.60;99.90
4052;DHT22;2040;50.924;11.604;2023-02-24T11:22:39;7.70;99.90
4052;DHT22;2040;50.924;11.604;2023-02-24T11:27:57;8.00;99.90
4052;DHT22;2040;50.924;11.604;2023-02-24T11:30:51;7.90;99.90
4052;DHT22;2040;50.924;11.604;2023-02-24T11:36:18;8.00;99.90
4052;DHT22;2040;50.924;11.604;2023-02-24T11:41:34;7.80;99.90
4052;DHT22;2040;50.924;11.604;2023-02-24T11:46:53;7.80;99.90
4052;DHT22;2040;50.924;11.604;2023-02-24T11:50:01;8.00;99.90
4052;DHT22;2040;50.924;11.604;2023-02-24T11:52:31;8.00;99.90
4052;DHT22;2040;50.924;11.604;2023-02-24T11:54:59;8.10;99.90
4052;DHT22;2040;50.924;11.604;2023-02-24T11:57:34;8.10;99.90
4052;DHT22;2040;50.924;11.604;2023-02-24T12:00:20;7.90;99.90
4052;DHT22;2040;50.924;11.604;2023-02-24T12:05:26;7.50;99.90
4052;DHT22;2040;50.924;11.604;2023-02-24T12:08:10;7.40;99.90
4052;DHT22;2040;50.924;11.604;2023-02-24T12:10:45;7.50;99.90
4052;DHT22;2040;50.924;11.604;2023-02-24T12:15:58;7.40;99.90
4052;DHT22;2040;50.924;11.604;2023-02-24T12:18:36;7.20;99.90
4052;DHT22;2040;50.924;11.604;2023-02-24T12:21:17;7.20;99.90
4052;DHT22;2040;50.924;11.604;2023-02-24T12:23:46;7.10;99.90
4052;DHT22;2040;50.924;11.604;2023-02-24T12:32:00;7.10;99.90
4052;DHT22;2040;50.924;11.604;2023-02-24T12:35:21;7.20;99.90
4052;DHT22;2040;50.924;11.604;2023-02-24T12:38:17;7.20;99.90
4052;DHT22;2040;50.924;11.604;2023-02-24T12:41:13;7.30;99.90
4052;DHT22;2040;50.924;11.604;2023-02-24T12:43:54;7.30;99.90
4052;DHT22;2040;50.924;11.604;2023-02-24T12:46:34;7.40;99.90
4052;DHT22;2040;50.924;11.604;2023-02-24T12:49:39;7.50;99.90
4052;DHT22;2040;50.924;11.604;2023-02-24T12:52:19;7.50;99.90
4052;DHT22;2040;50.924;11.604;2023-02-24T12:55:39;7.30;99.90
4052;DHT22;2040;50.924;11.604;2023-02-24T12:57:48;7.20;99.90
4052;DHT22;2040;50.924;11.604;2023-02-24T13:00:39;7.20;99.90
4052;DHT22;2040;50.924;11.604;2023-02-24T13:06:19;7.30;99.90
4052;DHT22;2040;50.924;11.604;2023-02-24T13:08:57;7.30;99.90
4052;DHT22;2040;50.924;11.604;2023-02-24T13:12:07;7.30;99.90
4052;DHT22;2040;50.924;11.604;2023-02-24T13:14:33;7.40;99.90
4052;DHT22;2040;50.924;11.604;2023-02-24T13:17:13;7.30;99.90
4052;DHT22;2040;50.924;11.604;2023-02-24T13:19:42;7.30;99.90
4052;DHT22;2040;50.924;11.604;2023-02-24T13:24:43;7.20;99.90
4052;DHT22;2040;50.924;11.604;2023-02-24T13:27:31;7.10;99.90
4052;DHT22;2040;50.924;11.604;2023-02-24T13:30:06;7.00;99.90
4052;DHT22;2040;50.924;11.604;2023-02-24T13:32:59;7.00;99.90
4052;DHT22;2040;50.924;11.604;2023-02-24T13:37:51;7.00;99.90
4052;DHT22;2040;50.924;11.604;2023-02-24T13:45:20;6.90;99.90
4052;DHT22;2040;50.924;11.604;2023-02-24T13:48:10;6.90;99.90
4052;DHT22;2040;50.924;11.604;2023-02-24T13:53:54;7.00;99.90
4052;DHT22;2040;50.924;11.604;2023-02-24T13:56:32;7.00;99.90
4052;DHT22;2040;50.924;11.604;2023-02-24T14:02:04;6.90;99.90
4052;DHT22;2040;50.924;11.604;2023-02-24T14:04:42;6.80;99.90
4052;DHT22;2040;50.924;11.604;2023-02-24T14:07:11;6.70;99.90
4052;DHT22;2040;50.924;11.604;2023-02-24T14:09:41;6.60;99.90
4052;DHT22;2040;50.924;11.604;2023-02-24T14:12:25;6.50;99.90
4052;DHT22;2040;50.924;11.604;2023-02-24T14:14:52;6.60;99.90
4052;DHT22;2040;50.924;11.604;2023-02-24T14:19:53;6.50;99.90
4052;DHT22;2040;50.924;11.604;2023-02-24T14:22:20;6.40;99.90
4052;DHT22;2040;50.924;11.604;2023-02-24T14:24:46;6.30;99.90
4052;DHT22;2040;50.924;11.604;2023-02-24T14:27:30;6.10;99.90
4052;DHT22;2040;50.924;11.604;2023-02-24T14:29:56;6.00;99.90
4052;DHT22;2040;50.924;11.604;2023-02-24T14:32:24;5.90;99.90
4052;DHT22;2040;50.924;11.604;2023-02-24T14:34:52;5.80;99.90
4052;DHT22;2040;50.924;11.604;2023-02-24T14:37:23;5.60;99.90
4052;DHT22;2040;50.924;11.604;2023-02-24T14:39:56;5.40;99.90
4052;DHT22;2040;50.924;11.604;2023-02-24T14:42:23;5.10;99.90
4052;DHT22;2040;50.924;11.604;2023-02-24T14:44:53;4.70;99.90
4052;DHT22;2040;50.924;11.604;2023-02-24T14:47:21;4.60;99.90
4052;DHT22;2040;50.924;11.604;2023-02-24T14:49:59;4.40;99.90
4052;DHT22;2040;50.924;11.604;2023-02-24T14:55:21;4.20;99.90
4052;DHT22;2040;50.924;11.604;2023-02-24T14:58:01;4.10;99.90
4052;DHT22;2040;50.924;11.604;2023-02-24T15:00:45;4.00;99.90
4052;DHT22;2040;50.924;11.604;2023-02-24T15:03:17;3.90;99.90
4052;DHT22;2040;50.924;11.604;2023-02-24T15:05:48;3.90;99.90
4052;DHT22;2040;50.924;11.604;2023-02-24T15:08:39;3.90;99.90
4052;DHT22;2040;50.924;11.604;2023-02-24T15:11:19;3.80;99.90
4052;DHT22;2040;50.924;11.604;2023-02-24T15:13:52;3.80;99.90
4052;DHT22;2040;50.924;11.604;2023-02-24T15:16:36;3.70;99.90
4052;DHT22;2040;50.924;11.604;2023-02-24T15:19:03;3.70;99.90
4052;DHT22;2040;50.924;11.604;2023-02-24T15:21:39;3.60;99.90
4052;DHT22;2040;50.924;11.604;2023-02-24T15:26:57;3.80;99.90
4052;DHT22;2040;50.924;11.604;2023-02-24T15:29:26;3.70;99.90
4052;DHT22;2040;50.924;11.604;2023-02-24T15:31:57;3.60;99.90
4052;DHT22;2040;50.924;11.604;2023-02-24T15:34:31;3.70;99.90
4052;DHT22;2040;50.924;11.604;2023-02-24T15:37:02;3.70;99.90
4052;DHT22;2040;50.924;11.604;2023-02-24T15:39:30;3.60;99.90
4052;DHT22;2040;50.924;11.604;2023-02-24T15:44:50;3.70;99.90
4052;DHT22;2040;50.924;11.604;2023-02-24T15:47:29;3.70;99.90
4052;DHT22;2040;50.924;11.604;2023-02-24T15:49:57;3.70;99.90
4052;DHT22;2040;50.924;11.604;2023-02-24T15:52:25;3.70;99.90
4052;DHT22;2040;50.924;11.604;2023-02-24T15:54:52;3.70;99.90
4052;DHT22;2040;50.924;11.604;2023-02-24T15:57:18;3.80;99.90
4052;DHT22;2040;50.924;11.604;2023-02-24T15:59:45;3.70;99.90
4052;DHT22;2040;50.924;11.604;2023-02-24T16:02:13;3.60;99.90
4052;DHT22;2040;50.924;11.604;2023-02-24T16:04:40;3.70;99.90
4052;DHT22;2040;50.924;11.604;2023-02-24T16:07:08;3.70;99.90
4052;DHT22;2040;50.924;11.604;2023-02-24T16:09:38;3.60;99.90
4052;DHT22;2040;50.924;11.604;2023-02-24T16:12:34;3.60;99.90
4052;DHT22;2040;50.924;11.604;2023-02-24T16:15:03;3.50;99.90
4052;DHT22;2040;50.924;11.604;2023-02-24T16:19:56;3.40;99.90
4052;DHT22;2040;50.924;11.604;2023-02-24T16:22:22;3.40;99.90
4052;DHT22;2040;50.924;11.604;2023-02-24T16:24:48;3.30;99.90
4052;DHT22;2040;50.924;11.604;2023-02-24T16:27:16;3.40;99.90
4052;DHT22;2040;50.924;11.604;2023-02-24T16:29:43;3.30;99.90
4052;DHT22;2040;50.924;11.604;2023-02-24T16:32:11;3.20;99.90
4052;DHT22;2040;50.924;11.604;2023-02-24T16:34:37;3.20;99.90
4052;DHT22;2040;50.924;11.604;2023-02-24T16:37:05;3.10;99.90
4052;DHT22;2040;50.924;11.604;2023-02-24T16:39:39;3.10;99.90
4052;DHT22;2040;50.924;11.604;2023-02-24T16:42:05;3.00;99.90
4052;DHT22;2040;50.924;11.604;2023-02-24T16:44:31;3.00;99.90
4052;DHT22;2040;50.924;11.604;2023-02-24T16:46:57;3.00;99.90
4052;DHT22;2040;50.924;11.604;2023-02-24T16:49:22;3.00;99.90
4052;DHT22;2040;50.924;11.604;2023-02-24T16:51:48;3.00;99.90
4052;DHT22;2040;50.924;11.604;2023-02-24T16:54:14;2.90;99.90
4052;DHT22;2040;50.924;11.604;2023-02-24T16:56:39;2.90;99.90
4052;DHT22;2040;50.924;11.604;2023-02-24T16:59:05;2.90;99.90
4052;DHT22;2040;50.924;11.604;2023-02-24T17:01:30;2.90;99.90
4052;DHT22;2040;50.924;11.604;2023-02-24T17:03:56;2.90;99.90
4052;DHT22;2040;50.924;11.604;2023-02-24T17:06:22;2.80;99.90
4052;DHT22;2040;50.924;11.604;2023-02-24T17:08:49;2.80;99.90
4052;DHT22;2040;50.924;11.604;2023-02-24T17:11:17;2.80;99.90
4052;DHT22;2040;50.924;11.604;2023-02-24T17:13:43;2.80;99.90
4052;DHT22;2040;50.924;11.604;2023-02-24T17:16:09;2.80;99.90
4052;DHT22;2040;50.924;11.604;2023-02-24T17:18:35;2.70;99.90
4052;DHT22;2040;50.924;11.604;2023-02-24T17:21:01;2.70;99.90
4052;DHT22;2040;50.924;11.604;2023-02-24T17:23:27;2.70;99.90
4052;DHT22;2040;50.924;11.604;2023-02-24T17:25:55;2.60;99.90
4052;DHT22;2040;50.924;11.604;2023-02-24T17:28:21;2.60;99.90
4052;DHT22;2040;50.924;11.604;2023-02-24T17:30:47;2.60;99.90
4052;DHT22;2040;50.924;11.604;2023-02-24T17:33:12;2.60;99.90
4052;DHT22;2040;50.924;11.604;2023-02-24T17:35:40;2.70;99.90
4052;DHT22;2040;50.924;11.604;2023-02-24T17:38:11;2.60;99.90
4052;DHT22;2040;50.924;11.604;2023-02-24T17:40:38;2.60;99.90
4052;DHT22;2040;50.924;11.604;2023-02-24T17:43:04;2.60;99.90
4052;DHT22;2040;50.924;11.604;2023-02-24T17:45:29;2.60;99.90
4052;DHT22;2040;50.924;11.604;2023-02-24T17:47:55;2.60;99.90
4052;DHT22;2040;50.924;11.604;2023-02-24T17:50:21;2.60;99.90
4052;DHT22;2040;50.924;11.604;2023-02-24T17:52:46;2.60;99.90
4052;DHT22;2040;50.924;11.604;2023-02-24T17:55:12;2.60;99.90
4052;DHT22;2040;50.924;11.604;2023-02-24T17:57:37;2.50;99.90
4052;DHT22;2040;50.924;11.604;2023-02-24T18:00:05;2.60;99.90
4052;DHT22;2040;50.924;11.604;2023-02-24T18:02:31;2.70;99.90
4052;DHT22;2040;50.924;11.604;2023-02-24T18:04:57;2.70;99.90
4052;DHT22;2040;50.924;11.604;2023-02-24T18:07:22;2.70;99.90
4052;DHT22;2040;50.924;11.604;2023-02-24T18:09:50;2.70;99.90
4052;DHT22;2040;50.924;11.604;2023-02-24T18:12:16;2.70;99.90
4052;DHT22;2040;50.924;11.604;2023-02-24T18:14:43;2.70;99.90
4052;DHT22;2040;50.924;11.604;2023-02-24T18:17:10;2.70;99.90
4052;DHT22;2040;50.924;11.604;2023-02-24T18:19:35;2.70;99.90
4052;DHT22;2040;50.924;11.604;2023-02-24T18:22:01;2.80;99.90
4052;DHT22;2040;50.924;11.604;2023-02-24T18:24:26;2.80;99.90
4052;DHT22;2040;50.924;11.604;2023-02-24T18:26:52;2.80;99.90
4052;DHT22;2040;50.924;11.604;2023-02-24T18:29:18;2.80;99.90
4052;DHT22;2040;50.924;11.604;2023-02-24T18:31:43;2.70;99.90